sensor_id;sensor_type;location;lat;lon;timestamp;P1;durP1;ratioP1;P2;durP2;ratioP2
55756;SDS011;41676;44.610;44.078;2023-08-30T04:16:20;25.50;;;5.97;;
55756;SDS011;41676;44.610;44.078;2023-08-30T04:21:23;35.92;;;7.10;;
55756;SDS011;41676;44.610;44.078;2023-08-30T04:26:26;42.15;;;6.75;;
55756;SDS011;41676;44.610;44.078;2023-08-30T04:31:27;34.70;;;6.82;;
55756;SDS011;41676;44.610;44.078;2023-08-30T04:41:36;12.75;;;4.15;;
55756;SDS011;41676;44.610;44.078;2023-08-30T04:46:39;8.82;;;3.53;;
55756;SDS011;41676;44.610;44.078;2023-08-30T05:01:42;17.50;;;5.55;;
55756;SDS011;41676;44.610;44.078;2023-08-30T05:06:44;29.38;;;7.82;;
55756;SDS011;41676;44.610;44.078;2023-08-30T05:11:45;34.17;;;17.48;;
55756;SDS011;41676;44.610;44.078;2023-08-30T05:16:45;38.47;;;28.35;;
55756;SDS011;41676;44.610;44.078;2023-08-30T05:21:46;45.13;;;33.00;;
55756;SDS011;41676;44.610;44.078;2023-08-30T05:26:47;79.13;;;60.30;;
55756;SDS011;41676;44.610;44.078;2023-08-30T05:31:48;108.70;;;83.70;;
55756;SDS011;41676;44.610;44.078;2023-08-30T05:36:49;109.15;;;77.80;;
55756;SDS011;41676;44.610;44.078;2023-08-30T05:41:50;118.63;;;94.82;;
55756;SDS011;41676;44.610;44.078;2023-08-30T05:46:50;128.90;;;80.25;;
55756;SDS011;41676;44.610;44.078;2023-08-30T05:51:51;116.57;;;87.15;;
55756;SDS011;41676;44.610;44.078;2023-08-30T05:56:52;135.60;;;98.43;;
55756;SDS011;41676;44.610;44.078;2023-08-30T06:01:53;134.82;;;99.70;;
55756;SDS011;41676;44.610;44.078;2023-08-30T06:06:53;121.03;;;90.72;;
55756;SDS011;41676;44.610;44.078;2023-08-30T06:11:54;131.07;;;81.68;;
55756;SDS011;41676;44.610;44.078;2023-08-30T06:16:55;97.57;;;72.15;;
55756;SDS011;41676;44.610;44.078;2023-08-30T06:21:56;108.95;;;74.70;;
55756;SDS011;41676;44.610;44.078;2023-08-30T06:26:56;86.15;;;63.03;;
55756;SDS011;41676;44.610;44.078;2023-08-30T06:31:58;81.10;;;59.30;;
55756;SDS011;41676;44.610;44.078;2023-08-30T06:36:59;69.82;;;43.72;;
55756;SDS011;41676;44.610;44.078;2023-08-30T06:41:59;46.63;;;37.85;;
55756;SDS011;41676;44.610;44.078;2023-08-30T06:47:00;72.10;;;36.35;;
55756;SDS011;41676;44.610;44.078;2023-08-30T06:52:01;60.58;;;38.45;;
55756;SDS011;41676;44.610;44.078;2023-08-30T06:57:04;53.00;;;36.37;;
55756;SDS011;41676;44.610;44.078;2023-08-30T07:02:07;69.47;;;33.35;;
55756;SDS011;41676;44.610;44.078;2023-08-30T07:07:07;64.72;;;29.40;;
55756;SDS011;41676;44.610;44.078;2023-08-30T07:12:08;54.83;;;35.00;;
55756;SDS011;41676;44.610;44.078;2023-08-30T07:17:10;99.18;;;39.83;;
55756;SDS011;41676;44.610;44.078;2023-08-30T07:22:10;67.78;;;30.60;;
55756;SDS011;41676;44.610;44.078;2023-08-30T07:27:11;40.90;;;28.80;;
55756;SDS011;41676;44.610;44.078;2023-08-30T07:32:14;44.67;;;28.38;;
55756;SDS011;41676;44.610;44.078;2023-08-30T07:37:19;37.50;;;23.20;;
55756;SDS011;41676;44.610;44.078;2023-08-30T07:42:20;33.88;;;21.70;;
55756;SDS011;41676;44.610;44.078;2023-08-30T07:47:21;30.77;;;20.58;;
55756;SDS011;41676;44.610;44.078;2023-08-30T07:52:21;30.33;;;19.80;;
55756;SDS011;41676;44.610;44.078;2023-08-30T07:57:22;30.40;;;18.92;;
55756;SDS011;41676;44.610;44.078;2023-08-30T08:02:23;48.28;;;16.40;;
55756;SDS011;41676;44.610;44.078;2023-08-30T08:07:24;22.85;;;16.05;;
55756;SDS011;41676;44.610;44.078;2023-08-30T08:12:26;39.67;;;16.67;;
55756;SDS011;41676;44.610;44.078;2023-08-30T08:17:27;25.00;;;14.40;;
55756;SDS011;41676;44.610;44.078;2023-08-30T08:22:29;29.52;;;14.45;;
55756;SDS011;41676;44.610;44.078;2023-08-30T08:27:30;21.50;;;12.75;;
55756;SDS011;41676;44.610;44.078;2023-08-30T08:32:30;38.42;;;12.32;;
55756;SDS011;41676;44.610;44.078;2023-08-30T08:37:32;36.45;;;13.27;;
55756;SDS011;41676;44.610;44.078;2023-08-30T08:42:33;43.78;;;13.77;;
55756;SDS011;41676;44.610;44.078;2023-08-30T08:47:33;21.58;;;13.65;;
55756;SDS011;41676;44.610;44.078;2023-08-30T08:52:35;43.67;;;14.05;;
55756;SDS011;41676;44.610;44.078;2023-08-30T08:57:35;25.13;;;12.77;;
55756;SDS011;41676;44.610;44.078;2023-08-30T09:02:38;30.52;;;13.52;;
55756;SDS011;41676;44.610;44.078;2023-08-30T09:07:41;24.33;;;11.75;;
55756;SDS011;41676;44.610;44.078;2023-08-30T09:12:43;40.60;;;12.68;;
55756;SDS011;41676;44.610;44.078;2023-08-30T09:17:43;16.92;;;12.93;;
55756;SDS011;41676;44.610;44.078;2023-08-30T09:22:44;42.85;;;13.77;;
55756;SDS011;41676;44.610;44.078;2023-08-30T09:27:45;46.10;;;11.50;;
55756;SDS011;41676;44.610;44.078;2023-08-30T09:32:46;22.05;;;10.55;;
55756;SDS011;41676;44.610;44.078;2023-08-30T09:37:46;14.68;;;9.80;;
55756;SDS011;41676;44.610;44.078;2023-08-30T09:42:47;20.55;;;8.85;;
55756;SDS011;41676;44.610;44.078;2023-08-30T09:47:48;14.77;;;8.65;;
55756;SDS011;41676;44.610;44.078;2023-08-30T09:52:50;22.13;;;7.68;;
55756;SDS011;41676;44.610;44.078;2023-08-30T09:57:53;11.32;;;6.30;;
55756;SDS011;41676;44.610;44.078;2023-08-30T10:02:54;10.50;;;5.40;;
55756;SDS011;41676;44.610;44.078;2023-08-30T10:07:55;11.95;;;4.97;;
55756;SDS011;41676;44.610;44.078;2023-08-30T10:12:56;15.02;;;4.97;;
55756;SDS011;41676;44.610;44.078;2023-08-30T10:17:58;16.45;;;4.07;;
55756;SDS011;41676;44.610;44.078;2023-08-30T10:23:01;13.95;;;4.10;;
55756;SDS011;41676;44.610;44.078;2023-08-30T10:28:03;22.90;;;4.07;;
55756;SDS011;41676;44.610;44.078;2023-08-30T10:33:11;16.40;;;3.63;;
55756;SDS011;41676;44.610;44.078;2023-08-30T10:38:13;15.82;;;3.47;;
55756;SDS011;41676;44.610;44.078;2023-08-30T10:43:29;17.52;;;3.55;;
55756;SDS011;41676;44.610;44.078;2023-08-30T10:48:37;20.52;;;3.30;;
55756;SDS011;41676;44.610;44.078;2023-08-30T10:53:39;11.00;;;2.85;;
55756;SDS011;41676;44.610;44.078;2023-08-30T10:58:43;10.25;;;2.72;;
55756;SDS011;41676;44.610;44.078;2023-08-30T11:03:44;7.35;;;2.33;;
55756;SDS011;41676;44.610;44.078;2023-08-30T11:08:45;12.15;;;2.53;;
55756;SDS011;41676;44.610;44.078;2023-08-30T11:13:48;12.32;;;2.65;;
55756;SDS011;41676;44.610;44.078;2023-08-30T11:18:49;6.18;;;2.30;;
55756;SDS011;41676;44.610;44.078;2023-08-30T11:23:51;7.32;;;2.17;;
55756;SDS011;41676;44.610;44.078;2023-08-30T11:28:51;9.93;;;2.03;;
55756;SDS011;41676;44.610;44.078;2023-08-30T11:33:53;5.68;;;2.45;;
55756;SDS011;41676;44.610;44.078;2023-08-30T11:38:56;11.43;;;2.55;;
55756;SDS011;41676;44.610;44.078;2023-08-30T11:43:58;8.43;;;2.33;;
55756;SDS011;41676;44.610;44.078;2023-08-30T11:48:59;18.67;;;2.70;;
55756;SDS011;41676;44.610;44.078;2023-08-30T11:54:00;14.00;;;2.42;;
55756;SDS011;41676;44.610;44.078;2023-08-30T12:04:10;9.65;;;2.50;;
55756;SDS011;41676;44.610;44.078;2023-08-30T12:09:12;10.93;;;2.50;;
55756;SDS011;41676;44.610;44.078;2023-08-30T12:14:13;8.60;;;2.58;;
55756;SDS011;41676;44.610;44.078;2023-08-30T12:19:14;19.63;;;3.25;;
55756;SDS011;41676;44.610;44.078;2023-08-30T12:24:15;38.53;;;3.92;;
55756;SDS011;41676;44.610;44.078;2023-08-30T12:29:15;38.05;;;3.60;;
55756;SDS011;41676;44.610;44.078;2023-08-30T12:34:16;13.60;;;2.75;;
55756;SDS011;41676;44.610;44.078;2023-08-30T13:29:47;17.92;;;2.80;;
55756;SDS011;41676;44.610;44.078;2023-08-30T17:13:45;24.17;;;9.20;;
55756;SDS011;41676;44.610;44.078;2023-08-30T17:22:39;35.45;;;16.75;;
55756;SDS011;41676;44.610;44.078;2023-08-30T17:29:05;34.45;;;20.17;;
55756;SDS011;41676;44.610;44.078;2023-08-30T17:34:06;51.97;;;26.17;;
55756;SDS011;41676;44.610;44.078;2023-08-30T17:39:06;47.47;;;27.92;;
55756;SDS011;41676;44.610;44.078;2023-08-30T17:44:07;44.25;;;29.48;;
55756;SDS011;41676;44.610;44.078;2023-08-30T17:49:08;54.25;;;30.10;;
55756;SDS011;41676;44.610;44.078;2023-08-30T17:54:09;52.38;;;32.28;;
55756;SDS011;41676;44.610;44.078;2023-08-30T17:59:12;56.90;;;34.78;;
55756;SDS011;41676;44.610;44.078;2023-08-30T18:04:13;61.00;;;35.53;;
55756;SDS011;41676;44.610;44.078;2023-08-30T18:09:14;49.22;;;36.53;;
55756;SDS011;41676;44.610;44.078;2023-08-30T18:14:15;50.05;;;30.35;;
55756;SDS011;41676;44.610;44.078;2023-08-30T18:19:16;54.63;;;28.65;;
55756;SDS011;41676;44.610;44.078;2023-08-30T18:24:18;42.35;;;26.58;;
55756;SDS011;41676;44.610;44.078;2023-08-30T18:29:20;47.28;;;24.02;;
55756;SDS011;41676;44.610;44.078;2023-08-30T18:34:20;35.97;;;22.08;;
55756;SDS011;41676;44.610;44.078;2023-08-30T18:39:21;42.10;;;19.83;;
55756;SDS011;41676;44.610;44.078;2023-08-30T18:44:22;37.95;;;17.55;;
55756;SDS011;41676;44.610;44.078;2023-08-30T18:49:24;48.30;;;15.60;;
55756;SDS011;41676;44.610;44.078;2023-08-30T18:54:25;56.50;;;14.10;;
55756;SDS011;41676;44.610;44.078;2023-08-30T18:59:27;33.30;;;12.45;;
55756;SDS011;41676;44.610;44.078;2023-08-30T19:04:28;28.15;;;11.45;;
55756;SDS011;41676;44.610;44.078;2023-08-30T19:09:30;29.23;;;10.38;;
55756;SDS011;41676;44.610;44.078;2023-08-30T19:14:31;34.97;;;10.18;;
55756;SDS011;41676;44.610;44.078;2023-08-30T19:19:32;20.45;;;8.73;;
55756;SDS011;41676;44.610;44.078;2023-08-30T19:24:33;24.75;;;7.55;;
55756;SDS011;41676;44.610;44.078;2023-08-30T19:29:37;26.77;;;7.95;;
55756;SDS011;41676;44.610;44.078;2023-08-30T19:34:37;22.10;;;6.72;;
55756;SDS011;41676;44.610;44.078;2023-08-30T19:39:38;23.27;;;6.20;;
55756;SDS011;41676;44.610;44.078;2023-08-30T19:44:39;21.48;;;6.05;;
55756;SDS011;41676;44.610;44.078;2023-08-30T19:49:40;10.98;;;4.68;;
55756;SDS011;41676;44.610;44.078;2023-08-30T19:54:40;14.93;;;4.75;;
55756;SDS011;41676;44.610;44.078;2023-08-30T19:59:41;15.27;;;4.13;;
55756;SDS011;41676;44.610;44.078;2023-08-30T20:04:42;18.92;;;3.85;;
55756;SDS011;41676;44.610;44.078;2023-08-30T20:09:43;9.75;;;2.85;;
55756;SDS011;41676;44.610;44.078;2023-08-30T20:14:43;9.85;;;3.20;;
55756;SDS011;41676;44.610;44.078;2023-08-30T20:19:44;15.80;;;3.25;;
55756;SDS011;41676;44.610;44.078;2023-08-30T20:24:46;17.42;;;3.05;;
55756;SDS011;41676;44.610;44.078;2023-08-30T20:29:47;10.93;;;3.00;;
55756;SDS011;41676;44.610;44.078;2023-08-30T20:34:48;9.88;;;2.63;;
55756;SDS011;41676;44.610;44.078;2023-08-30T20:39:48;7.80;;;2.22;;
55756;SDS011;41676;44.610;44.078;2023-08-30T20:44:51;30.05;;;3.40;;
55756;SDS011;41676;44.610;44.078;2023-08-30T20:49:52;11.30;;;2.58;;
55756;SDS011;41676;44.610;44.078;2023-08-30T20:54:53;14.10;;;2.60;;
55756;SDS011;41676;44.610;44.078;2023-08-30T20:59:53;10.55;;;2.85;;
55756;SDS011;41676;44.610;44.078;2023-08-30T21:04:54;5.13;;;2.20;;
55756;SDS011;41676;44.610;44.078;2023-08-30T21:09:55;5.70;;;2.47;;
55756;SDS011;41676;44.610;44.078;2023-08-30T21:14:55;9.98;;;2.30;;
55756;SDS011;41676;44.610;44.078;2023-08-30T21:19:56;14.20;;;2.60;;
55756;SDS011;41676;44.610;44.078;2023-08-30T21:24:57;9.90;;;2.65;;
55756;SDS011;41676;44.610;44.078;2023-08-30T21:29:58;8.50;;;2.42;;
55756;SDS011;41676;44.610;44.078;2023-08-30T21:34:59;5.03;;;1.95;;
55756;SDS011;41676;44.610;44.078;2023-08-30T21:39:59;9.75;;;2.97;;
55756;SDS011;41676;44.610;44.078;2023-08-30T21:45:01;7.65;;;2.60;;
55756;SDS011;41676;44.610;44.078;2023-08-30T21:50:02;8.93;;;2.53;;
55756;SDS011;41676;44.610;44.078;2023-08-30T21:55:04;14.90;;;2.85;;
55756;SDS011;41676;44.610;44.078;2023-08-30T22:00:08;8.50;;;2.92;;
55756;SDS011;41676;44.610;44.078;2023-08-30T22:05:09;8.05;;;2.67;;
55756;SDS011;41676;44.610;44.078;2023-08-30T22:10:12;13.20;;;2.88;;
55756;SDS011;41676;44.610;44.078;2023-08-30T22:15:13;21.75;;;3.28;;
55756;SDS011;41676;44.610;44.078;2023-08-30T22:20:14;15.23;;;2.63;;
55756;SDS011;41676;44.610;44.078;2023-08-30T22:25:16;15.98;;;2.63;;
55756;SDS011;41676;44.610;44.078;2023-08-30T22:30:17;8.68;;;2.97;;
55756;SDS011;41676;44.610;44.078;2023-08-30T22:35:18;15.00;;;2.90;;
55756;SDS011;41676;44.610;44.078;2023-08-30T22:40:18;6.50;;;2.47;;
55756;SDS011;41676;44.610;44.078;2023-08-30T22:45:19;8.07;;;2.40;;
55756;SDS011;41676;44.610;44.078;2023-08-30T22:50:20;7.38;;;2.65;;
55756;SDS011;41676;44.610;44.078;2023-08-30T22:55:21;11.13;;;2.78;;
55756;SDS011;41676;44.610;44.078;2023-08-30T23:00:22;5.78;;;3.00;;
55756;SDS011;41676;44.610;44.078;2023-08-30T23:05:23;5.00;;;2.40;;
55756;SDS011;41676;44.610;44.078;2023-08-30T23:10:23;4.78;;;2.63;;
55756;SDS011;41676;44.610;44.078;2023-08-30T23:15:27;7.20;;;2.80;;
55756;SDS011;41676;44.610;44.078;2023-08-30T23:20:27;6.90;;;2.80;;
55756;SDS011;41676;44.610;44.078;2023-08-30T23:25:28;9.15;;;3.03;;
55756;SDS011;41676;44.610;44.078;2023-08-30T23:30:29;6.15;;;2.80;;
55756;SDS011;41676;44.610;44.078;2023-08-30T23:35:30;7.32;;;2.80;;
55756;SDS011;41676;44.610;44.078;2023-08-30T23:40:32;8.82;;;2.95;;
55756;SDS011;41676;44.610;44.078;2023-08-30T23:45:32;4.18;;;2.85;;
55756;SDS011;41676;44.610;44.078;2023-08-30T23:50:33;8.50;;;3.28;;
55756;SDS011;41676;44.610;44.078;2023-08-30T23:55:34;9.32;;;2.95;;
